sensor_id;sensor_type;location;lat;lon;timestamp;temperature;humidity
78289;DHT22;67539;48.752;12.922;2023-02-22T00:01:55;2.90;99.90
78289;DHT22;67539;48.752;12.922;2023-02-22T00:04:37;2.90;99.90
78289;DHT22;67539;48.752;12.922;2023-02-22T00:07:06;2.80;99.90
78289;DHT22;67539;48.752;12.922;2023-02-22T00:09:34;2.80;99.90
78289;DHT22;67539;48.752;12.922;2023-02-22T00:12:04;2.80;99.90
78289;DHT22;67539;48.752;12.922;2023-02-22T00:14:32;2.70;99.90
78289;DHT22;67539;48.752;12.922;2023-02-22T00:17:00;2.80;99.90
78289;DHT22;67539;48.752;12.922;2023-02-22T00:19:28;2.70;99.90
78289;DHT22;67539;48.752;12.922;2023-02-22T00:21:56;2.70;99.90
78289;DHT22;67539;48.752;12.922;2023-02-22T00:24:25;2.70;99.90
78289;DHT22;67539;48.752;12.922;2023-02-22T00:26:55;2.70;99.90
78289;DHT22;67539;48.752;12.922;2023-02-22T00:29:24;2.70;99.90
78289;DHT22;67539;48.752;12.922;2023-02-22T00:31:54;2.70;99.90
78289;DHT22;67539;48.752;12.922;2023-02-22T00:34:22;2.60;99.90
78289;DHT22;67539;48.752;12.922;2023-02-22T00:36:50;2.60;99.90
78289;DHT22;67539;48.752;12.922;2023-02-22T00:39:18;2.60;99.90
78289;DHT22;67539;48.752;12.922;2023-02-22T00:41:46;2.60;99.90
78289;DHT22;67539;48.752;12.922;2023-02-22T00:44:15;2.50;99.90
78289;DHT22;67539;48.752;12.922;2023-02-22T00:46:45;2.50;99.90
78289;DHT22;67539;48.752;12.922;2023-02-22T00:49:14;2.40;99.90
78289;DHT22;67539;48.752;12.922;2023-02-22T00:51:42;2.40;99.90
78289;DHT22;67539;48.752;12.922;2023-02-22T00:54:10;2.40;99.90
78289;DHT22;67539;48.752;12.922;2023-02-22T00:56:38;2.40;99.90
78289;DHT22;67539;48.752;12.922;2023-02-22T00:59:06;2.30;99.90
78289;DHT22;67539;48.752;12.922;2023-02-22T01:01:34;2.30;99.90
78289;DHT22;67539;48.752;12.922;2023-02-22T01:04:04;2.30;99.90
78289;DHT22;67539;48.752;12.922;2023-02-22T01:06:32;2.30;99.90
78289;DHT22;67539;48.752;12.922;2023-02-22T01:09:01;2.30;99.90
78289;DHT22;67539;48.752;12.922;2023-02-22T01:11:29;2.20;99.90
78289;DHT22;67539;48.752;12.922;2023-02-22T01:13:57;2.20;99.90
78289;DHT22;67539;48.752;12.922;2023-02-22T01:16:26;2.20;99.90
78289;DHT22;67539;48.752;12.922;2023-02-22T01:18:54;2.20;99.90
78289;DHT22;67539;48.752;12.922;2023-02-22T01:21:24;2.10;99.90
78289;DHT22;67539;48.752;12.922;2023-02-22T01:23:53;2.10;99.90
78289;DHT22;67539;48.752;12.922;2023-02-22T01:26:21;2.10;99.90
78289;DHT22;67539;48.752;12.922;2023-02-22T01:28:49;2.00;99.90
78289;DHT22;67539;48.752;12.922;2023-02-22T01:31:17;2.00;99.90
78289;DHT22;67539;48.752;12.922;2023-02-22T01:33:45;2.00;99.90
78289;DHT22;67539;48.752;12.922;2023-02-22T01:36:13;2.00;99.90
78289;DHT22;67539;48.752;12.922;2023-02-22T01:38:43;2.00;99.90
78289;DHT22;67539;48.752;12.922;2023-02-22T01:41:12;2.00;99.90
78289;DHT22;67539;48.752;12.922;2023-02-22T01:43:44;2.00;99.90
78289;DHT22;67539;48.752;12.922;2023-02-22T01:46:21;2.00;99.90
78289;DHT22;67539;48.752;12.922;2023-02-22T01:48:55;2.00;99.90
78289;DHT22;67539;48.752;12.922;2023-02-22T01:51:27;2.00;99.90
78289;DHT22;67539;48.752;12.922;2023-02-22T01:53:59;2.00;99.90
78289;DHT22;67539;48.752;12.922;2023-02-22T01:56:30;1.90;99.90
78289;DHT22;67539;48.752;12.922;2023-02-22T01:59:02;1.90;99.90
78289;DHT22;67539;48.752;12.922;2023-02-22T02:01:34;1.90;99.90
78289;DHT22;67539;48.752;12.922;2023-02-22T02:04:05;1.80;99.90
78289;DHT22;67539;48.752;12.922;2023-02-22T02:06:35;1.90;99.90
78289;DHT22;67539;48.752;12.922;2023-02-22T02:09:10;1.90;99.90
78289;DHT22;67539;48.752;12.922;2023-02-22T02:11:40;1.90;99.90
78289;DHT22;67539;48.752;12.922;2023-02-22T02:14:10;1.90;99.90
78289;DHT22;67539;48.752;12.922;2023-02-22T02:16:40;2.00;99.90
78289;DHT22;67539;48.752;12.922;2023-02-22T02:19:15;2.00;99.90
78289;DHT22;67539;48.752;12.922;2023-02-22T02:22:10;2.00;99.90
78289;DHT22;67539;48.752;12.922;2023-02-22T02:31:04;2.10;99.90
78289;DHT22;67539;48.752;12.922;2023-02-22T02:33:45;2.20;99.90
78289;DHT22;67539;48.752;12.922;2023-02-22T02:36:19;2.20;99.90
78289;DHT22;67539;48.752;12.922;2023-02-22T02:38:56;2.30;99.90
78289;DHT22;67539;48.752;12.922;2023-02-22T02:41:28;2.30;99.90
78289;DHT22;67539;48.752;12.922;2023-02-22T02:44:00;2.30;99.90
78289;DHT22;67539;48.752;12.922;2023-02-22T02:46:33;2.40;99.90
78289;DHT22;67539;48.752;12.922;2023-02-22T02:49:06;2.40;99.90
78289;DHT22;67539;48.752;12.922;2023-02-22T02:51:38;2.40;99.90
78289;DHT22;67539;48.752;12.922;2023-02-22T02:54:08;2.40;99.90
78289;DHT22;67539;48.752;12.922;2023-02-22T02:56:37;2.40;99.90
78289;DHT22;67539;48.752;12.922;2023-02-22T02:59:23;2.40;99.90
78289;DHT22;67539;48.752;12.922;2023-02-22T03:04:50;2.50;99.90
78289;DHT22;67539;48.752;12.922;2023-02-22T03:07:44;2.50;99.90
78289;DHT22;67539;48.752;12.922;2023-02-22T03:10:31;2.40;99.90
78289;DHT22;67539;48.752;12.922;2023-02-22T03:13:09;2.50;99.90
78289;DHT22;67539;48.752;12.922;2023-02-22T03:15:49;2.40;99.90
78289;DHT22;67539;48.752;12.922;2023-02-22T03:18:24;2.40;99.90
78289;DHT22;67539;48.752;12.922;2023-02-22T03:21:03;2.40;99.90
78289;DHT22;67539;48.752;12.922;2023-02-22T03:23:37;2.40;99.90
78289;DHT22;67539;48.752;12.922;2023-02-22T03:26:11;2.40;99.90
78289;DHT22;67539;48.752;12.922;2023-02-22T03:28:43;2.50;99.90
78289;DHT22;67539;48.752;12.922;2023-02-22T03:31:16;2.50;99.90
78289;DHT22;67539;48.752;12.922;2023-02-22T03:33:49;2.50;99.90
78289;DHT22;67539;48.752;12.922;2023-02-22T03:36:22;2.50;99.90
78289;DHT22;67539;48.752;12.922;2023-02-22T03:38:55;2.50;99.90
78289;DHT22;67539;48.752;12.922;2023-02-22T03:41:25;2.50;99.90
78289;DHT22;67539;48.752;12.922;2023-02-22T03:43:57;2.40;99.90
78289;DHT22;67539;48.752;12.922;2023-02-22T03:46:27;2.40;99.90
78289;DHT22;67539;48.752;12.922;2023-02-22T03:48:59;2.40;99.90
78289;DHT22;67539;48.752;12.922;2023-02-22T03:51:35;2.40;99.90
78289;DHT22;67539;48.752;12.922;2023-02-22T03:54:05;2.40;99.90
78289;DHT22;67539;48.752;12.922;2023-02-22T03:56:40;2.40;99.90
78289;DHT22;67539;48.752;12.922;2023-02-22T03:59:13;2.30;99.90
78289;DHT22;67539;48.752;12.922;2023-02-22T04:01:42;2.30;99.90
78289;DHT22;67539;48.752;12.922;2023-02-22T04:04:11;2.20;99.90
78289;DHT22;67539;48.752;12.922;2023-02-22T04:06:40;2.20;99.90
78289;DHT22;67539;48.752;12.922;2023-02-22T04:09:08;2.20;99.90
78289;DHT22;67539;48.752;12.922;2023-02-22T04:11:36;2.20;99.90
78289;DHT22;67539;48.752;12.922;2023-02-22T04:14:04;2.20;99.90
78289;DHT22;67539;48.752;12.922;2023-02-22T04:16:33;2.10;99.90
78289;DHT22;67539;48.752;12.922;2023-02-22T04:19:04;2.10;99.90
78289;DHT22;67539;48.752;12.922;2023-02-22T04:21:34;2.10;99.90
78289;DHT22;67539;48.752;12.922;2023-02-22T04:24:05;2.10;99.90
78289;DHT22;67539;48.752;12.922;2023-02-22T04:26:33;2.10;99.90
78289;DHT22;67539;48.752;12.922;2023-02-22T04:29:02;2.00;99.90
78289;DHT22;67539;48.752;12.922;2023-02-22T04:31:36;2.00;99.90
78289;DHT22;67539;48.752;12.922;2023-02-22T04:34:05;2.00;99.90
78289;DHT22;67539;48.752;12.922;2023-02-22T04:36:36;2.00;99.90
78289;DHT22;67539;48.752;12.922;2023-02-22T04:39:06;2.00;99.90
78289;DHT22;67539;48.752;12.922;2023-02-22T04:41:34;2.00;99.90
78289;DHT22;67539;48.752;12.922;2023-02-22T04:44:02;2.00;99.90
78289;DHT22;67539;48.752;12.922;2023-02-22T04:46:31;2.00;99.90
78289;DHT22;67539;48.752;12.922;2023-02-22T04:49:00;2.10;99.90
78289;DHT22;67539;48.752;12.922;2023-02-22T04:51:31;2.10;99.90
78289;DHT22;67539;48.752;12.922;2023-02-22T04:54:02;2.00;99.90
78289;DHT22;67539;48.752;12.922;2023-02-22T04:56:33;2.10;99.90
78289;DHT22;67539;48.752;12.922;2023-02-22T04:59:01;2.00;99.90
78289;DHT22;67539;48.752;12.922;2023-02-22T05:01:30;2.00;99.90
78289;DHT22;67539;48.752;12.922;2023-02-22T05:04:01;2.00;99.90
78289;DHT22;67539;48.752;12.922;2023-02-22T05:06:29;2.00;99.90
78289;DHT22;67539;48.752;12.922;2023-02-22T05:08:57;2.00;99.90
78289;DHT22;67539;48.752;12.922;2023-02-22T05:11:26;2.00;99.90
78289;DHT22;67539;48.752;12.922;2023-02-22T05:13:55;2.00;99.90
78289;DHT22;67539;48.752;12.922;2023-02-22T05:16:23;2.00;99.90
78289;DHT22;67539;48.752;12.922;2023-02-22T05:18:52;2.00;99.90
78289;DHT22;67539;48.752;12.922;2023-02-22T05:21:20;2.00;99.90
78289;DHT22;67539;48.752;12.922;2023-02-22T05:23:48;1.90;99.90
78289;DHT22;67539;48.752;12.922;2023-02-22T05:26:16;1.90;99.90
78289;DHT22;67539;48.752;12.922;2023-02-22T05:28:44;1.90;99.90
78289;DHT22;67539;48.752;12.922;2023-02-22T05:31:14;1.90;99.90
78289;DHT22;67539;48.752;12.922;2023-02-22T05:33:43;1.90;99.90
78289;DHT22;67539;48.752;12.922;2023-02-22T05:36:11;1.80;99.90
78289;DHT22;67539;48.752;12.922;2023-02-22T05:38:39;1.70;99.90
78289;DHT22;67539;48.752;12.922;2023-02-22T05:41:10;1.70;99.90
78289;DHT22;67539;48.752;12.922;2023-02-22T05:43:38;1.70;99.90
78289;DHT22;67539;48.752;12.922;2023-02-22T05:46:06;1.70;99.90
78289;DHT22;67539;48.752;12.922;2023-02-22T05:48:35;1.70;99.90
78289;DHT22;67539;48.752;12.922;2023-02-22T05:51:04;1.60;99.90
78289;DHT22;67539;48.752;12.922;2023-02-22T05:53:33;1.60;99.90
78289;DHT22;67539;48.752;12.922;2023-02-22T05:56:01;1.60;99.90
78289;DHT22;67539;48.752;12.922;2023-02-22T05:58:30;1.60;99.90
78289;DHT22;67539;48.752;12.922;2023-02-22T06:00:58;1.60;99.90
78289;DHT22;67539;48.752;12.922;2023-02-22T06:03:29;1.50;99.90
78289;DHT22;67539;48.752;12.922;2023-02-22T06:05:58;1.50;99.90
78289;DHT22;67539;48.752;12.922;2023-02-22T06:08:26;1.40;99.90
78289;DHT22;67539;48.752;12.922;2023-02-22T06:10:54;1.40;99.90
78289;DHT22;67539;48.752;12.922;2023-02-22T06:13:22;1.30;99.90
78289;DHT22;67539;48.752;12.922;2023-02-22T06:15:50;1.30;99.90
78289;DHT22;67539;48.752;12.922;2023-02-22T06:18:18;1.30;99.90
78289;DHT22;67539;48.752;12.922;2023-02-22T06:20:46;1.30;99.90
78289;DHT22;67539;48.752;12.922;2023-02-22T06:23:15;1.30;99.90
78289;DHT22;67539;48.752;12.922;2023-02-22T06:25:43;1.30;99.90
78289;DHT22;67539;48.752;12.922;2023-02-22T06:28:11;1.40;99.90
78289;DHT22;67539;48.752;12.922;2023-02-22T06:30:40;1.50;99.90
78289;DHT22;67539;48.752;12.922;2023-02-22T06:33:09;1.50;99.90
78289;DHT22;67539;48.752;12.922;2023-02-22T06:35:37;1.50;99.90
78289;DHT22;67539;48.752;12.922;2023-02-22T06:38:05;1.60;99.90
78289;DHT22;67539;48.752;12.922;2023-02-22T06:40:35;1.60;99.90
78289;DHT22;67539;48.752;12.922;2023-02-22T06:43:03;1.60;99.90
78289;DHT22;67539;48.752;12.922;2023-02-22T06:45:31;1.60;99.90
78289;DHT22;67539;48.752;12.922;2023-02-22T06:47:59;1.70;99.90
78289;DHT22;67539;48.752;12.922;2023-02-22T06:50:29;1.70;99.90
78289;DHT22;67539;48.752;12.922;2023-02-22T06:53:02;1.80;99.90
78289;DHT22;67539;48.752;12.922;2023-02-22T06:55:32;1.80;99.90
78289;DHT22;67539;48.752;12.922;2023-02-22T06:58:03;1.80;99.90
78289;DHT22;67539;48.752;12.922;2023-02-22T07:00:31;1.80;99.90
78289;DHT22;67539;48.752;12.922;2023-02-22T07:03:00;1.90;99.90
78289;DHT22;67539;48.752;12.922;2023-02-22T07:05:28;2.00;99.90
78289;DHT22;67539;48.752;12.922;2023-02-22T07:08:02;2.10;99.90
78289;DHT22;67539;48.752;12.922;2023-02-22T07:10:32;2.10;99.90
78289;DHT22;67539;48.752;12.922;2023-02-22T07:13:03;2.20;99.90
78289;DHT22;67539;48.752;12.922;2023-02-22T07:15:33;2.20;99.90
78289;DHT22;67539;48.752;12.922;2023-02-22T07:18:02;2.20;99.90
78289;DHT22;67539;48.752;12.922;2023-02-22T07:20:31;2.10;99.90
78289;DHT22;67539;48.752;12.922;2023-02-22T07:23:00;2.20;99.90
78289;DHT22;67539;48.752;12.922;2023-02-22T07:25:28;2.20;99.90
78289;DHT22;67539;48.752;12.922;2023-02-22T07:27:56;2.20;99.90
78289;DHT22;67539;48.752;12.922;2023-02-22T07:30:26;2.30;99.90
78289;DHT22;67539;48.752;12.922;2023-02-22T07:32:58;2.30;99.90
78289;DHT22;67539;48.752;12.922;2023-02-22T07:35:29;2.40;99.90
78289;DHT22;67539;48.752;12.922;2023-02-22T07:37:57;2.40;99.90
78289;DHT22;67539;48.752;12.922;2023-02-22T07:40:26;2.60;99.90
78289;DHT22;67539;48.752;12.922;2023-02-22T07:42:57;2.60;99.90
78289;DHT22;67539;48.752;12.922;2023-02-22T07:45:29;2.70;99.90
78289;DHT22;67539;48.752;12.922;2023-02-22T07:47:58;2.80;99.90
78289;DHT22;67539;48.752;12.922;2023-02-22T07:50:29;2.90;99.90
78289;DHT22;67539;48.752;12.922;2023-02-22T07:53:01;3.00;99.90
78289;DHT22;67539;48.752;12.922;2023-02-22T07:55:31;3.10;99.90
78289;DHT22;67539;48.752;12.922;2023-02-22T07:58:01;3.20;99.90
78289;DHT22;67539;48.752;12.922;2023-02-22T08:00:35;3.40;99.90
78289;DHT22;67539;48.752;12.922;2023-02-22T08:03:06;3.40;99.90
78289;DHT22;67539;48.752;12.922;2023-02-22T08:05:36;3.50;99.90
78289;DHT22;67539;48.752;12.922;2023-02-22T08:08:05;3.60;99.90
78289;DHT22;67539;48.752;12.922;2023-02-22T08:10:34;3.70;99.90
78289;DHT22;67539;48.752;12.922;2023-02-22T08:13:03;3.80;99.90
78289;DHT22;67539;48.752;12.922;2023-02-22T08:15:35;3.90;99.90
78289;DHT22;67539;48.752;12.922;2023-02-22T08:18:06;4.00;99.90
78289;DHT22;67539;48.752;12.922;2023-02-22T08:20:35;4.10;99.90
78289;DHT22;67539;48.752;12.922;2023-02-22T08:23:04;4.20;99.90
78289;DHT22;67539;48.752;12.922;2023-02-22T08:25:34;4.30;99.90
78289;DHT22;67539;48.752;12.922;2023-02-22T08:28:05;4.40;99.90
78289;DHT22;67539;48.752;12.922;2023-02-22T08:30:36;4.40;99.90
78289;DHT22;67539;48.752;12.922;2023-02-22T08:33:06;4.50;99.90
78289;DHT22;67539;48.752;12.922;2023-02-22T08:35:34;4.60;99.90
78289;DHT22;67539;48.752;12.922;2023-02-22T08:38:04;4.70;99.90
78289;DHT22;67539;48.752;12.922;2023-02-22T08:40:34;4.80;99.90
78289;DHT22;67539;48.752;12.922;2023-02-22T08:43:03;5.00;99.90
78289;DHT22;67539;48.752;12.922;2023-02-22T08:45:32;5.10;99.90
78289;DHT22;67539;48.752;12.922;2023-02-22T08:48:01;5.20;99.90
78289;DHT22;67539;48.752;12.922;2023-02-22T08:50:31;5.40;99.90
78289;DHT22;67539;48.752;12.922;2023-02-22T08:53:02;5.50;99.90
78289;DHT22;67539;48.752;12.922;2023-02-22T08:55:31;5.60;99.90
78289;DHT22;67539;48.752;12.922;2023-02-22T08:58:00;5.70;99.90
78289;DHT22;67539;48.752;12.922;2023-02-22T09:00:31;5.80;99.90
78289;DHT22;67539;48.752;12.922;2023-02-22T09:03:02;6.00;99.90
78289;DHT22;67539;48.752;12.922;2023-02-22T09:05:31;6.10;99.90
78289;DHT22;67539;48.752;12.922;2023-02-22T09:07:59;6.20;99.90
78289;DHT22;67539;48.752;12.922;2023-02-22T09:10:31;6.30;99.90
78289;DHT22;67539;48.752;12.922;2023-02-22T09:12:59;6.40;99.90
78289;DHT22;67539;48.752;12.922;2023-02-22T09:15:29;6.50;99.90
78289;DHT22;67539;48.752;12.922;2023-02-22T09:17:57;6.70;99.90
78289;DHT22;67539;48.752;12.922;2023-02-22T09:20:27;6.70;99.90
78289;DHT22;67539;48.752;12.922;2023-02-22T09:22:56;6.80;99.90
78289;DHT22;67539;48.752;12.922;2023-02-22T09:25:25;7.00;99.90
78289;DHT22;67539;48.752;12.922;2023-02-22T09:27:54;7.10;99.90
78289;DHT22;67539;48.752;12.922;2023-02-22T09:30:24;7.20;99.90
78289;DHT22;67539;48.752;12.922;2023-02-22T09:32:55;7.40;99.90
78289;DHT22;67539;48.752;12.922;2023-02-22T09:35:26;7.50;99.90
78289;DHT22;67539;48.752;12.922;2023-02-22T09:37:55;7.60;99.90
78289;DHT22;67539;48.752;12.922;2023-02-22T09:40:23;7.70;99.90
78289;DHT22;67539;48.752;12.922;2023-02-22T09:43:08;7.80;99.90
78289;DHT22;67539;48.752;12.922;2023-02-22T09:45:54;7.90;99.90
78289;DHT22;67539;48.752;12.922;2023-02-22T09:48:25;8.10;99.90
78289;DHT22;67539;48.752;12.922;2023-02-22T09:50:57;8.20;99.90
78289;DHT22;67539;48.752;12.922;2023-02-22T09:53:30;8.30;99.90
78289;DHT22;67539;48.752;12.922;2023-02-22T09:56:06;8.40;99.90
78289;DHT22;67539;48.752;12.922;2023-02-22T09:58:39;8.50;99.90
78289;DHT22;67539;48.752;12.922;2023-02-22T10:01:18;8.70;99.90
78289;DHT22;67539;48.752;12.922;2023-02-22T10:03:53;8.70;99.90
78289;DHT22;67539;48.752;12.922;2023-02-22T10:06:24;8.90;99.90
78289;DHT22;67539;48.752;12.922;2023-02-22T10:08:56;9.00;99.90
78289;DHT22;67539;48.752;12.922;2023-02-22T10:11:47;9.10;99.90
78289;DHT22;67539;48.752;12.922;2023-02-22T10:17:19;9.40;99.90
78289;DHT22;67539;48.752;12.922;2023-02-22T10:19:56;9.50;99.90
78289;DHT22;67539;48.752;12.922;2023-02-22T10:22:38;9.70;99.90
78289;DHT22;67539;48.752;12.922;2023-02-22T10:25:11;9.80;99.90
78289;DHT22;67539;48.752;12.922;2023-02-22T10:27:44;9.90;99.90
78289;DHT22;67539;48.752;12.922;2023-02-22T10:30:19;10.00;99.90
78289;DHT22;67539;48.752;12.922;2023-02-22T10:32:58;10.10;99.90
78289;DHT22;67539;48.752;12.922;2023-02-22T10:35:33;10.30;99.90
78289;DHT22;67539;48.752;12.922;2023-02-22T10:38:11;10.40;99.90
78289;DHT22;67539;48.752;12.922;2023-02-22T10:40:43;10.60;99.90
78289;DHT22;67539;48.752;12.922;2023-02-22T10:43:13;10.70;99.90
78289;DHT22;67539;48.752;12.922;2023-02-22T10:45:41;10.80;99.90
78289;DHT22;67539;48.752;12.922;2023-02-22T10:48:12;11.00;99.90
78289;DHT22;67539;48.752;12.922;2023-02-22T10:50:43;11.10;99.90
78289;DHT22;67539;48.752;12.922;2023-02-22T10:53:13;11.20;99.90
78289;DHT22;67539;48.752;12.922;2023-02-22T10:56:04;11.30;99.90
78289;DHT22;67539;48.752;12.922;2023-02-22T10:58:40;11.50;99.90
78289;DHT22;67539;48.752;12.922;2023-02-22T11:01:18;11.60;99.90
78289;DHT22;67539;48.752;12.922;2023-02-22T11:03:58;11.70;99.90
78289;DHT22;67539;48.752;12.922;2023-02-22T11:06:28;11.80;99.90
78289;DHT22;67539;48.752;12.922;2023-02-22T11:09:06;11.90;99.20
78289;DHT22;67539;48.752;12.922;2023-02-22T11:11:37;12.00;99.30
78289;DHT22;67539;48.752;12.922;2023-02-22T11:14:05;12.20;98.60
78289;DHT22;67539;48.752;12.922;2023-02-22T11:16:38;12.30;98.50
78289;DHT22;67539;48.752;12.922;2023-02-22T11:19:19;12.40;97.50
78289;DHT22;67539;48.752;12.922;2023-02-22T11:21:51;12.40;97.90
78289;DHT22;67539;48.752;12.922;2023-02-22T11:24:22;12.50;97.60
78289;DHT22;67539;48.752;12.922;2023-02-22T11:27:00;12.60;97.50
78289;DHT22;67539;48.752;12.922;2023-02-22T11:29:32;12.70;97.00
78289;DHT22;67539;48.752;12.922;2023-02-22T11:32:02;12.80;96.40
78289;DHT22;67539;48.752;12.922;2023-02-22T11:34:39;12.90;95.90
78289;DHT22;67539;48.752;12.922;2023-02-22T11:37:18;12.90;94.60
78289;DHT22;67539;48.752;12.922;2023-02-22T11:40:12;13.10;94.90
78289;DHT22;67539;48.752;12.922;2023-02-22T11:42:43;13.20;93.80
78289;DHT22;67539;48.752;12.922;2023-02-22T11:45:13;13.20;94.80
78289;DHT22;67539;48.752;12.922;2023-02-22T11:47:51;13.30;94.30
78289;DHT22;67539;48.752;12.922;2023-02-22T11:50:25;13.40;94.40
78289;DHT22;67539;48.752;12.922;2023-02-22T11:53:08;13.50;94.00
78289;DHT22;67539;48.752;12.922;2023-02-22T11:55:45;13.60;93.70
78289;DHT22;67539;48.752;12.922;2023-02-22T11:58:32;13.60;92.90
78289;DHT22;67539;48.752;12.922;2023-02-22T12:01:09;13.60;93.20
78289;DHT22;67539;48.752;12.922;2023-02-22T12:07:01;13.70;93.80
78289;DHT22;67539;48.752;12.922;2023-02-22T12:09:40;13.80;93.30
78289;DHT22;67539;48.752;12.922;2023-02-22T12:12:17;14.00;93.60
78289;DHT22;67539;48.752;12.922;2023-02-22T12:14:53;14.00;93.40
78289;DHT22;67539;48.752;12.922;2023-02-22T12:17:34;14.10;92.00
78289;DHT22;67539;48.752;12.922;2023-02-22T12:20:17;14.20;92.80
78289;DHT22;67539;48.752;12.922;2023-02-22T12:22:56;14.30;90.60
78289;DHT22;67539;48.752;12.922;2023-02-22T12:25:29;14.30;90.90
78289;DHT22;67539;48.752;12.922;2023-02-22T12:28:02;14.30;91.00
78289;DHT22;67539;48.752;12.922;2023-02-22T12:30:55;14.30;88.30
78289;DHT22;67539;48.752;12.922;2023-02-22T12:33:41;14.30;90.20
78289;DHT22;67539;48.752;12.922;2023-02-22T12:36:13;14.50;89.00
78289;DHT22;67539;48.752;12.922;2023-02-22T12:38:44;14.60;86.20
78289;DHT22;67539;48.752;12.922;2023-02-22T12:41:21;14.60;89.00
78289;DHT22;67539;48.752;12.922;2023-02-22T12:43:58;14.70;86.70
78289;DHT22;67539;48.752;12.922;2023-02-22T12:46:30;14.70;85.50
78289;DHT22;67539;48.752;12.922;2023-02-22T12:49:09;14.80;85.20
78289;DHT22;67539;48.752;12.922;2023-02-22T12:51:43;14.90;83.70
78289;DHT22;67539;48.752;12.922;2023-02-22T12:54:15;14.90;84.20
78289;DHT22;67539;48.752;12.922;2023-02-22T12:56:50;14.90;85.30
78289;DHT22;67539;48.752;12.922;2023-02-22T12:59:27;15.00;86.00
78289;DHT22;67539;48.752;12.922;2023-02-22T13:01:59;15.10;85.30
78289;DHT22;67539;48.752;12.922;2023-02-22T13:04:29;15.20;86.50
78289;DHT22;67539;48.752;12.922;2023-02-22T13:07:11;15.30;83.20
78289;DHT22;67539;48.752;12.922;2023-02-22T13:12:47;15.50;85.60
78289;DHT22;67539;48.752;12.922;2023-02-22T13:15:24;15.50;82.50
78289;DHT22;67539;48.752;12.922;2023-02-22T13:17:59;15.60;81.20
78289;DHT22;67539;48.752;12.922;2023-02-22T13:20:32;15.60;80.50
78289;DHT22;67539;48.752;12.922;2023-02-22T13:23:05;15.60;82.60
78289;DHT22;67539;48.752;12.922;2023-02-22T13:25:43;15.60;81.20
78289;DHT22;67539;48.752;12.922;2023-02-22T13:28:21;15.70;81.40
78289;DHT22;67539;48.752;12.922;2023-02-22T13:31:00;15.80;83.40
78289;DHT22;67539;48.752;12.922;2023-02-22T13:33:42;15.90;83.50
78289;DHT22;67539;48.752;12.922;2023-02-22T13:36:35;16.00;79.80
78289;DHT22;67539;48.752;12.922;2023-02-22T13:39:24;16.00;80.00
78289;DHT22;67539;48.752;12.922;2023-02-22T13:42:07;16.00;79.50
78289;DHT22;67539;48.752;12.922;2023-02-22T13:50:51;16.20;78.30
78289;DHT22;67539;48.752;12.922;2023-02-22T13:53:26;16.30;78.30
78289;DHT22;67539;48.752;12.922;2023-02-22T13:55:57;16.50;78.40
78289;DHT22;67539;48.752;12.922;2023-02-22T13:58:26;16.60;76.50
78289;DHT22;67539;48.752;12.922;2023-02-22T14:00:56;16.80;75.20
78289;DHT22;67539;48.752;12.922;2023-02-22T14:03:33;17.00;70.40
78289;DHT22;67539;48.752;12.922;2023-02-22T14:06:08;17.10;74.00
78289;DHT22;67539;48.752;12.922;2023-02-22T14:08:44;17.30;72.90
78289;DHT22;67539;48.752;12.922;2023-02-22T14:11:40;17.40;70.00
78289;DHT22;67539;48.752;12.922;2023-02-22T14:14:12;17.70;72.40
78289;DHT22;67539;48.752;12.922;2023-02-22T14:16:42;18.00;73.20
78289;DHT22;67539;48.752;12.922;2023-02-22T14:19:18;18.40;71.50
78289;DHT22;67539;48.752;12.922;2023-02-22T14:21:57;18.70;69.60
78289;DHT22;67539;48.752;12.922;2023-02-22T14:24:28;18.80;68.00
78289;DHT22;67539;48.752;12.922;2023-02-22T14:27:00;19.00;67.30
78289;DHT22;67539;48.752;12.922;2023-02-22T14:29:30;19.10;66.50
78289;DHT22;67539;48.752;12.922;2023-02-22T14:32:04;19.10;64.80
78289;DHT22;67539;48.752;12.922;2023-02-22T14:34:43;19.10;62.20
78289;DHT22;67539;48.752;12.922;2023-02-22T14:37:16;19.10;65.10
78289;DHT22;67539;48.752;12.922;2023-02-22T14:39:47;19.30;60.80
78289;DHT22;67539;48.752;12.922;2023-02-22T14:42:21;19.30;63.80
78289;DHT22;67539;48.752;12.922;2023-02-22T14:44:55;19.30;62.80
78289;DHT22;67539;48.752;12.922;2023-02-22T14:47:27;19.20;60.10
78289;DHT22;67539;48.752;12.922;2023-02-22T14:50:02;19.40;61.90
78289;DHT22;67539;48.752;12.922;2023-02-22T14:52:35;19.50;61.50
78289;DHT22;67539;48.752;12.922;2023-02-22T14:55:13;19.50;61.30
78289;DHT22;67539;48.752;12.922;2023-02-22T14:57:56;19.70;60.00
78289;DHT22;67539;48.752;12.922;2023-02-22T15:00:37;19.90;60.50
78289;DHT22;67539;48.752;12.922;2023-02-22T15:03:17;20.00;59.70
78289;DHT22;67539;48.752;12.922;2023-02-22T15:05:47;20.00;58.10
78289;DHT22;67539;48.752;12.922;2023-02-22T15:08:16;20.00;57.40
78289;DHT22;67539;48.752;12.922;2023-02-22T15:10:53;19.90;57.90
78289;DHT22;67539;48.752;12.922;2023-02-22T15:13:24;19.60;58.00
78289;DHT22;67539;48.752;12.922;2023-02-22T15:15:55;19.40;57.30
78289;DHT22;67539;48.752;12.922;2023-02-22T15:18:31;19.20;57.50
78289;DHT22;67539;48.752;12.922;2023-02-22T15:21:06;19.00;58.60
78289;DHT22;67539;48.752;12.922;2023-02-22T15:23:41;18.90;59.00
78289;DHT22;67539;48.752;12.922;2023-02-22T15:26:18;18.80;59.30
78289;DHT22;67539;48.752;12.922;2023-02-22T15:28:47;18.80;58.20
78289;DHT22;67539;48.752;12.922;2023-02-22T15:31:26;18.60;59.30
78289;DHT22;67539;48.752;12.922;2023-02-22T15:33:55;18.40;59.40
78289;DHT22;67539;48.752;12.922;2023-02-22T15:36:27;18.20;59.30
78289;DHT22;67539;48.752;12.922;2023-02-22T15:38:56;18.00;59.60
78289;DHT22;67539;48.752;12.922;2023-02-22T15:41:28;17.70;60.50
78289;DHT22;67539;48.752;12.922;2023-02-22T15:44:07;17.60;60.80
78289;DHT22;67539;48.752;12.922;2023-02-22T15:46:49;17.50;61.10
78289;DHT22;67539;48.752;12.922;2023-02-22T15:49:21;17.40;61.40
78289;DHT22;67539;48.752;12.922;2023-02-22T15:52:03;17.30;61.20
78289;DHT22;67539;48.752;12.922;2023-02-22T15:54:43;17.00;63.00
78289;DHT22;67539;48.752;12.922;2023-02-22T15:57:14;16.70;64.30
78289;DHT22;67539;48.752;12.922;2023-02-22T15:59:46;16.50;65.70
78289;DHT22;67539;48.752;12.922;2023-02-22T16:02:33;16.30;66.40
78289;DHT22;67539;48.752;12.922;2023-02-22T16:05:07;16.20;66.50
78289;DHT22;67539;48.752;12.922;2023-02-22T16:07:38;16.10;67.10
78289;DHT22;67539;48.752;12.922;2023-02-22T16:10:29;15.90;67.90
78289;DHT22;67539;48.752;12.922;2023-02-22T16:13:07;15.80;68.80
78289;DHT22;67539;48.752;12.922;2023-02-22T16:15:55;15.70;69.00
78289;DHT22;67539;48.752;12.922;2023-02-22T16:18:26;15.40;69.90
78289;DHT22;67539;48.752;12.922;2023-02-22T16:21:06;15.20;70.50
78289;DHT22;67539;48.752;12.922;2023-02-22T16:23:47;15.10;71.00